Ana Sayfa
METAR-TAF:

METAR-TAF

Havaalanları :

Fort-de-France, Martinique

Enlem: 14-36N, Boylam: 061-00W, yükseklik: 5 m

Güncel hava durumu gözlemi

Rapor saat 05:00 UTC de 27 dakika önce yapıldı.
Rüzgar doğudan 8 kt
Sıcaklık 25°C
Nem 83%
Basınç 1015 hPa
Görüş mesafesi 10 km veya daha fazla

METAR: TFFF 200500Z AUTO 10008KT 9999 BKN022/// BKN030/// BKN039/// 25/22 Q1015 TEMPO 4000 SHRA SCT015TCU

Saat: 01:27 (05:27 UTC)

Tahmin

Rapor saat 23:00 UTC de 6 saat ve 27 dakika önce yapıldı.
Ayın 20'si saat 00 UTC'den ayın 20'si saat 24 UTC'ye kadar geçerli Tahmin
Rüzgar doğudan 12 kt
Görüş mesafesi 10 km veya daha fazla
2300 ft yükseklikte az bulutlu
Olasılık 30% :
Geçici
ayın 20'si saat 06 UTC'den ayın 20'si saat 12 UTC'ye kadar
Görüş mesafesi: 4000 m
1500 ft yükseklikte parçalı bulutlu, Yükselen kümülüs.
sağanak yağmurlar

TAF: TFFF 192300Z 2000/2024 10012KT 9999 FEW023 PROB30 TEMPO 2006/2012 4000 SHRA SCT015TCU

4.000'den fazla havaalanı için hava durumu gözlemleri ve tahminleri (METAR ve TAF raporları).

Kullanılabilir istasyonlar harita üzerinde sarı ve kırmızı noktalarla gösterilir.

İstasyonun adını görmek için fareyi noktanın üzerinde gezdirin.

Sonrasında hava gözlem ve tahminlerini görmek için tıklayın.

Haritayı değiştirmek için: yaklaştırmak için siyah artı işaretli yeşil düğmeye ve uzaklaştırmak için de eksi işaretli düğmeye hızla tıklayın; bitişik haritalar için yeşil okları kullanın.


METAR-TAF: